createdAt,value
2022-11-22T00:00:08.351Z,5.21
2022-11-22T00:01:40.258Z,5.22
2022-11-22T00:03:12.223Z,5.24
2022-11-22T00:04:44.112Z,5.26
2022-11-22T00:06:16.039Z,5.28
2022-11-22T00:07:50.425Z,5.28
2022-11-22T00:09:22.422Z,5.23
2022-11-22T00:10:54.284Z,5.20
2022-11-22T00:12:26.118Z,5.16
2022-11-22T00:13:57.900Z,5.15
2022-11-22T00:15:30.135Z,5.10
2022-11-22T00:17:01.996Z,5.07
2022-11-22T00:18:33.931Z,5.02
2022-11-22T00:20:06.649Z,4.97
2022-11-22T00:21:38.680Z,4.92
2022-11-22T00:23:10.772Z,4.89
2022-11-22T00:24:42.656Z,4.86
2022-11-22T00:26:14.495Z,4.83
2022-11-22T00:27:46.406Z,4.77
2022-11-22T00:29:24.206Z,4.69
2022-11-22T00:30:56.097Z,4.64
2022-11-22T00:32:28.134Z,4.62
2022-11-22T00:33:59.932Z,4.59
2022-11-22T00:35:31.838Z,4.60
2022-11-22T00:37:03.626Z,4.65
2022-11-22T00:38:35.537Z,4.66
2022-11-22T00:41:42.175Z,4.63
2022-11-22T00:43:14.085Z,4.61
2022-11-22T00:44:45.966Z,4.60
2022-11-22T00:46:17.856Z,4.58
2022-11-22T00:47:49.699Z,4.55
2022-11-22T00:49:21.663Z,4.51
2022-11-22T00:50:53.591Z,4.44
2022-11-22T00:52:25.412Z,4.40
2022-11-22T00:53:57.239Z,4.40
2022-11-22T00:55:29.300Z,4.39
2022-11-22T00:57:01.300Z,4.39
2022-11-22T00:58:33.308Z,4.37
2022-11-22T01:00:08.821Z,4.37
2022-11-22T01:01:40.721Z,4.34
2022-11-22T01:03:13.240Z,4.32
2022-11-22T01:04:45.155Z,4.25
2022-11-22T01:06:16.977Z,4.15
2022-11-22T01:07:49.014Z,4.08
2022-11-22T01:09:21.448Z,4.02
2022-11-22T01:10:59.601Z,3.92
2022-11-22T01:12:31.482Z,3.88
2022-11-22T01:14:03.399Z,3.81
2022-11-22T01:15:35.704Z,3.78
2022-11-22T01:17:07.488Z,3.72
2022-11-22T01:18:39.485Z,3.70
2022-11-22T01:20:11.450Z,3.65
2022-11-22T01:21:43.332Z,3.62
2022-11-22T01:23:15.346Z,3.60
2022-11-22T01:24:47.852Z,3.57
2022-11-22T01:26:19.715Z,3.53
2022-11-22T01:27:51.532Z,3.53
2022-11-22T01:29:23.408Z,3.57
2022-11-22T01:30:55.472Z,3.63
2022-11-22T01:32:28.417Z,3.70
2022-11-22T01:34:00.364Z,3.71
2022-11-22T01:35:32.513Z,3.76
2022-11-22T01:37:04.379Z,3.74
2022-11-22T01:38:36.177Z,3.71
2022-11-22T01:40:08.464Z,3.71
2022-11-22T01:41:40.387Z,3.69
2022-11-22T01:43:14.984Z,3.68
2022-11-22T01:44:47.276Z,3.63
2022-11-22T01:46:23.589Z,3.55
2022-11-22T01:48:28.012Z,3.54
2022-11-22T01:50:01.412Z,3.47
2022-11-22T01:51:38.138Z,3.39
2022-11-22T01:53:12.027Z,3.35
2022-11-22T01:56:22.969Z,3.31
2022-11-22T01:57:54.771Z,3.33
2022-11-22T01:59:27.106Z,3.34
2022-11-22T02:00:59.289Z,3.32
2022-11-22T02:02:31.240Z,3.30
2022-11-22T02:04:03.480Z,3.29
2022-11-22T02:05:35.525Z,3.28
2022-11-22T02:07:07.420Z,3.25
2022-11-22T02:08:47.881Z,3.19
2022-11-22T02:10:19.830Z,3.14
2022-11-22T02:11:52.273Z,3.10
2022-11-22T02:13:24.285Z,3.09
2022-11-22T02:14:56.445Z,3.10
2022-11-22T02:16:28.335Z,3.11
2022-11-22T02:18:00.143Z,3.10
2022-11-22T02:19:43.350Z,3.11
2022-11-22T02:21:15.209Z,3.13
2022-11-22T02:22:58.811Z,3.13
2022-11-22T02:24:37.046Z,3.06
2022-11-22T02:26:08.968Z,3.00
2022-11-22T02:27:40.764Z,2.92
2022-11-22T02:30:51.089Z,2.83
2022-11-22T03:15:13.757Z,2.39
2022-11-22T03:16:46.104Z,2.40
2022-11-22T03:18:17.929Z,2.41
2022-11-22T03:19:49.842Z,2.38
2022-11-22T03:21:21.769Z,2.41
2022-11-22T03:22:53.676Z,2.43
2022-11-22T03:24:25.544Z,2.46
2022-11-22T03:25:57.559Z,2.48
2022-11-22T03:27:29.471Z,2.41
2022-11-22T03:29:01.421Z,2.34
2022-11-22T03:30:33.410Z,2.28
2022-11-22T03:32:08.126Z,2.23
2022-11-22T03:33:40.146Z,2.21
2022-11-22T03:35:12.052Z,2.17
2022-11-22T03:36:43.966Z,2.17
2022-11-22T03:38:15.797Z,2.17
2022-11-22T03:39:47.646Z,2.23
2022-11-22T03:41:19.498Z,2.24
2022-11-22T03:42:51.315Z,2.21
2022-11-22T03:44:23.621Z,2.15
2022-11-22T03:45:55.507Z,2.09
2022-11-22T03:47:27.311Z,2.06
2022-11-22T03:48:59.161Z,2.09
2022-11-22T03:50:31.082Z,2.09
2022-11-22T03:52:03.011Z,2.13
2022-11-22T03:53:34.863Z,2.16
2022-11-22T03:55:06.875Z,2.19
2022-11-22T03:56:38.744Z,2.22
2022-11-22T03:58:10.846Z,2.20
2022-11-22T03:59:42.683Z,2.20
2022-11-22T04:01:16.717Z,2.19
2022-11-22T04:02:48.905Z,2.19
2022-11-22T04:04:20.848Z,2.22
2022-11-22T04:05:52.738Z,2.20
2022-11-22T04:07:24.679Z,2.17
2022-11-22T04:08:56.745Z,2.12
2022-11-22T04:10:28.707Z,2.10
2022-11-22T04:12:00.584Z,2.13
2022-11-22T04:13:51.132Z,2.16
2022-11-22T04:15:23.130Z,2.21
2022-11-22T04:16:55.046Z,2.18
2022-11-22T04:18:26.914Z,2.17
2022-11-22T04:20:17.262Z,2.12
2022-11-22T04:21:49.173Z,2.14
2022-11-22T04:23:21.792Z,2.15
2022-11-22T04:25:15.662Z,2.15
2022-11-22T04:26:47.759Z,2.10
2022-11-22T04:28:40.488Z,2.06
2022-11-22T04:30:20.255Z,1.97
2022-11-22T04:32:11.495Z,1.93
2022-11-22T04:33:43.383Z,1.90
2022-11-22T04:35:16.108Z,1.87
2022-11-22T04:36:50.838Z,1.86
2022-11-22T04:38:22.789Z,1.88
2022-11-22T04:39:54.682Z,1.92
2022-11-22T04:41:26.556Z,1.95
2022-11-22T04:43:16.865Z,1.90
2022-11-22T04:44:48.832Z,1.93
2022-11-22T04:46:20.730Z,1.94
2022-11-22T04:48:01.411Z,1.97
2022-11-22T04:49:33.231Z,1.98
2022-11-22T04:51:23.926Z,1.96
2022-11-22T04:52:58.591Z,1.92
2022-11-22T04:54:30.529Z,1.93
2022-11-22T04:56:02.329Z,1.93
2022-11-22T04:57:34.171Z,1.91
2022-11-22T04:59:06.070Z,1.87
2022-11-22T05:00:38.288Z,1.82
2022-11-22T05:02:13.330Z,1.77
2022-11-22T05:03:45.169Z,1.80
2022-11-22T05:05:17.030Z,1.81
2022-11-22T05:06:48.930Z,1.86
2022-11-22T05:08:21.291Z,1.89
2022-11-22T05:09:53.096Z,1.95
2022-11-22T05:11:25.045Z,1.99
2022-11-22T05:12:57.037Z,1.95
2022-11-22T05:14:28.879Z,1.90
2022-11-22T05:16:01.313Z,1.93
2022-11-22T05:17:33.122Z,1.94
2022-11-22T05:19:05.102Z,1.93
2022-11-22T05:20:37.085Z,1.89
2022-11-22T05:22:08.935Z,1.88
2022-11-22T05:23:55.835Z,1.88
2022-11-22T05:25:28.329Z,1.88
2022-11-22T05:27:02.264Z,1.89
2022-11-22T05:28:34.999Z,1.89
2022-11-22T05:30:07.283Z,1.84
2022-11-22T05:31:39.686Z,1.79
2022-11-22T05:33:11.699Z,1.71
2022-11-22T05:34:43.618Z,1.69
2022-11-22T05:36:15.552Z,1.67
2022-11-22T05:37:48.740Z,1.71
2022-11-22T05:39:20.720Z,1.75
2022-11-22T05:40:52.635Z,1.78
2022-11-22T05:42:24.611Z,1.82
2022-11-22T05:43:57.092Z,1.85
2022-11-22T05:45:28.979Z,1.79
2022-11-22T05:47:00.851Z,1.87
2022-11-22T05:48:32.711Z,1.84
2022-11-22T05:50:04.936Z,1.79
2022-11-22T05:51:36.838Z,1.70
2022-11-22T05:53:08.773Z,1.70
2022-11-22T05:54:40.756Z,1.71
2022-11-22T05:56:13.494Z,1.76
2022-11-22T05:57:45.409Z,1.79
2022-11-22T05:59:17.349Z,1.81
2022-11-22T06:00:49.252Z,1.80
2022-11-22T06:02:21.449Z,1.79
2022-11-22T06:03:53.347Z,1.80
2022-11-22T06:05:25.278Z,1.86
2022-11-22T06:06:57.183Z,1.95
2022-11-22T06:08:32.363Z,2.03
2022-11-22T06:10:04.286Z,2.10
2022-11-22T06:11:36.260Z,2.18
2022-11-22T06:13:10.531Z,2.26
2022-11-22T06:14:43.677Z,2.34
2022-11-22T06:16:15.937Z,2.42
2022-11-22T06:17:48.012Z,2.50
2022-11-22T06:19:20.796Z,2.55
2022-11-22T06:20:52.668Z,2.55
2022-11-22T06:22:24.651Z,2.60
2022-11-22T06:23:56.607Z,2.68
2022-11-22T06:25:29.025Z,2.71
2022-11-22T06:27:00.929Z,2.71
2022-11-22T06:28:33.595Z,2.67
2022-11-22T06:30:05.739Z,2.64
2022-11-22T06:31:37.691Z,2.63
2022-11-22T06:33:09.552Z,2.64
2022-11-22T06:34:41.734Z,2.69
2022-11-22T06:36:13.824Z,2.73
2022-11-22T06:37:45.755Z,2.79
2022-11-22T06:39:17.907Z,2.84
2022-11-22T06:40:49.870Z,2.92
2022-11-22T06:42:21.766Z,3.01
2022-11-22T06:43:54.304Z,3.09
2022-11-22T06:45:26.561Z,3.18
2022-11-22T06:46:58.573Z,3.32
2022-11-22T06:48:30.875Z,3.43
2022-11-22T06:50:02.889Z,3.55
2022-11-22T06:51:34.815Z,3.65
2022-11-22T06:53:06.667Z,3.76
2022-11-22T06:54:38.627Z,3.83
2022-11-22T06:56:13.324Z,3.92
2022-11-22T06:57:47.260Z,3.99
2022-11-22T06:59:19.254Z,4.07
2022-11-22T07:00:51.191Z,4.14
2022-11-22T07:02:23.170Z,4.22
2022-11-22T07:03:58.974Z,4.32
2022-11-22T07:05:31.047Z,4.38
2022-11-22T07:07:02.962Z,4.46
2022-11-22T07:08:35.094Z,4.55
2022-11-22T07:10:07.355Z,4.64
2022-11-22T07:11:39.953Z,4.74
2022-11-22T07:13:11.886Z,4.84
2022-11-22T07:14:44.655Z,4.95
2022-11-22T07:16:20.626Z,5.01
2022-11-22T07:17:52.647Z,5.08
2022-11-22T07:19:24.583Z,5.16
2022-11-22T07:21:13.278Z,5.26
2022-11-22T07:22:47.557Z,5.34
2022-11-22T07:24:19.505Z,5.43
2022-11-22T07:25:51.549Z,5.52
2022-11-22T07:27:23.499Z,5.59
2022-11-22T07:28:55.893Z,5.66
2022-11-22T07:30:27.879Z,5.75
2022-11-22T07:31:59.914Z,5.82
2022-11-22T07:33:34.735Z,5.88
2022-11-22T07:35:06.873Z,5.95
2022-11-22T07:36:38.770Z,5.98
2022-11-22T07:38:10.773Z,6.06
2022-11-22T07:39:42.676Z,6.13
2022-11-22T07:41:15.066Z,6.20
2022-11-22T07:42:46.928Z,6.26
2022-11-22T07:44:18.888Z,6.18
2022-11-22T07:45:51.055Z,6.23
2022-11-22T07:47:23.298Z,6.30
2022-11-22T07:48:55.372Z,6.35
2022-11-22T07:50:28.032Z,6.46
2022-11-22T07:52:00.375Z,6.53
2022-11-22T07:53:35.163Z,6.61
2022-11-22T07:55:12.534Z,6.68
2022-11-22T07:56:45.866Z,6.76
2022-11-22T07:58:26.419Z,6.84
2022-11-22T07:59:58.692Z,6.88
2022-11-22T08:01:30.630Z,6.96
2022-11-22T08:03:02.535Z,7.02
2022-11-22T08:04:34.450Z,7.09
2022-11-22T08:06:07.488Z,7.13
2022-11-22T08:07:39.601Z,7.20
2022-11-22T08:09:12.081Z,7.27
2022-11-22T08:10:44.374Z,7.33
2022-11-22T08:12:16.431Z,7.40
2022-11-22T08:13:48.394Z,7.45
2022-11-22T08:15:20.276Z,7.54
2022-11-22T08:16:52.518Z,7.58
2022-11-22T08:18:24.440Z,7.64
2022-11-22T08:19:56.330Z,7.70
2022-11-22T08:21:28.357Z,7.75
2022-11-22T08:23:00.328Z,7.80
2022-11-22T08:24:32.401Z,7.87
2022-11-22T08:26:04.500Z,7.92
2022-11-22T08:27:36.399Z,7.98
2022-11-22T08:29:13.868Z,8.06
2022-11-22T08:30:46.276Z,8.13
2022-11-22T08:32:18.192Z,8.19
2022-11-22T08:33:52.714Z,8.25
2022-11-22T08:35:24.657Z,8.31
2022-11-22T08:36:56.554Z,8.38
2022-11-22T08:38:28.565Z,8.45
2022-11-22T08:40:00.764Z,8.53
2022-11-22T08:41:33.092Z,8.60
2022-11-22T08:43:05.046Z,8.68
2022-11-22T08:44:36.921Z,8.76
2022-11-22T08:46:08.808Z,8.87
2022-11-22T08:47:40.700Z,8.94
2022-11-22T08:49:12.746Z,9.02
2022-11-22T08:50:50.304Z,9.08
2022-11-22T08:52:22.210Z,9.16
2022-11-22T08:53:54.187Z,9.23
2022-11-22T08:55:26.166Z,9.31
2022-11-22T08:56:58.072Z,9.39
2022-11-22T08:58:31.335Z,9.44
2022-11-22T09:00:04.475Z,9.47
2022-11-22T09:01:36.417Z,9.51
2022-11-22T09:03:08.358Z,9.62
2022-11-22T09:04:40.389Z,9.69
2022-11-22T09:08:25.567Z,9.85
2022-11-22T09:09:57.754Z,9.90
2022-11-22T09:11:29.821Z,9.99
2022-11-22T09:13:02.004Z,10.06
2022-11-22T09:14:33.966Z,10.14
2022-11-22T09:16:06.760Z,10.22
2022-11-22T09:17:38.974Z,10.25
2022-11-22T09:19:11.019Z,10.28
2022-11-22T09:20:46.230Z,10.31
2022-11-22T09:22:18.082Z,10.35
2022-11-22T09:23:50.551Z,10.39
2022-11-22T09:25:22.932Z,10.44
2022-11-22T09:26:55.073Z,10.53
2022-11-22T09:28:27.743Z,10.62
2022-11-22T09:29:59.893Z,10.68
2022-11-22T09:31:32.076Z,10.76
2022-11-22T09:33:04.056Z,10.78
2022-11-22T09:34:36.038Z,10.80
2022-11-22T09:36:08.967Z,10.81
2022-11-22T09:37:41.545Z,10.82
2022-11-22T09:39:16.918Z,10.84
2022-11-22T09:40:49.028Z,10.87
2022-11-22T09:42:39.768Z,10.96
2022-11-22T09:44:23.727Z,11.00
2022-11-22T09:45:58.682Z,11.01
2022-11-22T09:47:36.637Z,11.04
2022-11-22T09:49:08.998Z,11.06
2022-11-22T09:51:02.688Z,11.06
2022-11-22T09:52:36.461Z,11.01
2022-11-22T09:54:09.494Z,11.04
2022-11-22T09:55:42.647Z,11.05
2022-11-22T09:58:52.805Z,11.15
2022-11-22T10:00:26.419Z,11.22
2022-11-22T10:02:11.676Z,11.28
2022-11-22T10:03:49.934Z,11.27
2022-11-22T10:05:25.168Z,11.27
2022-11-22T10:06:59.447Z,11.36
2022-11-22T10:08:34.054Z,11.41
2022-11-22T10:10:19.691Z,11.47
2022-11-22T10:11:51.712Z,11.55
2022-11-22T10:13:44.208Z,11.59
2022-11-22T10:15:25.098Z,11.63
2022-11-22T10:17:09.396Z,11.63
2022-11-22T10:18:55.187Z,11.68
2022-11-22T10:20:28.133Z,11.71
2022-11-22T10:21:59.977Z,11.73
2022-11-22T10:23:33.137Z,11.77
2022-11-22T10:25:14.178Z,11.75
2022-11-22T10:26:47.230Z,11.80
2022-11-22T10:28:25.189Z,11.85
2022-11-22T10:29:59.975Z,11.88
2022-11-22T10:31:34.410Z,11.91
2022-11-22T10:33:44.713Z,11.92
2022-11-22T10:35:23.487Z,11.93
2022-11-22T10:36:57.590Z,11.95
2022-11-22T10:38:48.257Z,11.99
2022-11-22T10:40:23.218Z,12.03
2022-11-22T10:43:46.250Z,12.04
2022-11-22T10:45:31.870Z,12.08
2022-11-22T10:47:09.446Z,12.09
2022-11-22T10:48:41.294Z,12.14
2022-11-22T10:50:17.451Z,12.13
2022-11-22T10:51:54.424Z,12.19
2022-11-22T10:53:29.014Z,12.21
2022-11-22T10:55:04.982Z,12.24
2022-11-22T10:56:36.867Z,12.25
2022-11-22T10:58:21.252Z,12.27
2022-11-22T11:00:13.278Z,12.25
2022-11-22T11:02:13.853Z,12.29
2022-11-22T11:03:46.618Z,12.30
2022-11-22T11:05:19.443Z,12.31
2022-11-22T11:09:23.785Z,12.26
2022-11-22T11:10:40.993Z,12.20
2022-11-22T11:12:22.843Z,12.21
2022-11-22T11:13:55.612Z,12.19
2022-11-22T11:15:30.758Z,12.14
2022-11-22T11:17:03.345Z,12.18
2022-11-22T11:18:43.541Z,12.21
2022-11-22T11:20:23.450Z,12.21
2022-11-22T11:22:05.854Z,12.26
2022-11-22T11:23:37.651Z,12.22
2022-11-22T11:25:27.840Z,12.25
2022-11-22T11:26:59.888Z,12.31
2022-11-22T11:28:31.903Z,12.32
2022-11-22T11:30:04.630Z,12.38
2022-11-22T11:32:06.349Z,12.42
2022-11-22T11:33:39.297Z,12.47
2022-11-22T11:35:13.923Z,12.49
2022-11-22T11:36:45.934Z,12.51
2022-11-22T11:38:30.764Z,12.48
2022-11-22T11:40:03.353Z,12.49
2022-11-22T11:41:40.220Z,12.51
2022-11-22T11:43:16.720Z,12.48
2022-11-22T11:44:48.714Z,12.48
2022-11-22T11:46:20.589Z,12.48
2022-11-22T11:47:52.597Z,12.48
2022-11-22T11:49:25.559Z,12.45
2022-11-22T11:51:26.779Z,12.42
2022-11-22T11:53:05.465Z,12.47
2022-11-22T11:54:41.185Z,12.47
2022-11-22T11:56:35.767Z,12.49
2022-11-22T11:58:17.792Z,12.50
2022-11-22T11:59:50.234Z,12.51
2022-11-22T12:01:22.406Z,12.51
2022-11-22T12:03:00.708Z,12.50
2022-11-22T12:04:33.903Z,12.46
2022-11-22T12:06:13.341Z,12.45
2022-11-22T12:07:48.421Z,12.44
2022-11-22T12:09:28.428Z,12.40
2022-11-22T12:11:02.468Z,12.41
2022-11-22T12:12:43.332Z,12.42
2022-11-22T12:14:22.489Z,12.41
2022-11-22T12:15:57.342Z,12.41
2022-11-22T12:17:31.178Z,12.41
2022-11-22T12:19:08.755Z,12.42
2022-11-22T12:22:49.526Z,12.42
2022-11-22T12:26:14.966Z,12.37
2022-11-22T12:27:47.353Z,12.32
2022-11-22T12:29:19.279Z,12.31
2022-11-22T12:30:57.724Z,12.29
2022-11-22T12:32:31.690Z,12.26
2022-11-22T12:34:08.449Z,12.22
2022-11-22T12:35:43.871Z,12.21
2022-11-22T12:37:20.031Z,12.19
2022-11-22T12:38:52.276Z,12.18
2022-11-22T12:40:25.185Z,12.17
2022-11-22T12:42:05.990Z,12.17
2022-11-22T12:43:47.375Z,12.14
2022-11-22T12:45:35.704Z,12.12
2022-11-22T12:47:09.581Z,12.11
2022-11-22T12:48:48.404Z,12.07
2022-11-22T12:50:24.713Z,12.05
2022-11-22T12:51:57.250Z,12.05
2022-11-22T12:53:33.041Z,12.05
2022-11-22T12:55:23.570Z,12.03
2022-11-22T12:56:56.368Z,12.02
2022-11-22T12:58:32.133Z,12.01
2022-11-22T13:00:10.769Z,12.02
2022-11-22T13:01:45.667Z,12.02
2022-11-22T13:03:22.117Z,11.98
2022-11-22T13:04:56.871Z,11.95
2022-11-22T13:06:30.138Z,11.89
2022-11-22T13:08:02.194Z,11.85
2022-11-22T13:09:35.869Z,11.80
2022-11-22T13:11:22.287Z,11.80
2022-11-22T13:12:54.699Z,11.80
2022-11-22T13:14:30.010Z,11.80
2022-11-22T13:16:03.348Z,11.79
2022-11-22T13:17:35.691Z,11.82
2022-11-22T13:19:07.886Z,11.81
2022-11-22T13:20:43.203Z,11.75
2022-11-22T13:22:17.208Z,11.74
2022-11-22T13:23:55.308Z,11.77
2022-11-22T13:27:00.180Z,11.72
2022-11-22T13:28:34.990Z,11.75
2022-11-22T13:30:17.168Z,11.77
2022-11-22T13:32:09.478Z,11.79
2022-11-22T13:33:43.888Z,11.80
2022-11-22T13:35:15.973Z,11.82
2022-11-22T13:36:48.269Z,11.81
2022-11-22T13:38:20.396Z,11.83
2022-11-22T13:39:52.706Z,11.84
2022-11-22T13:41:28.855Z,11.84
2022-11-22T13:43:21.452Z,11.83
2022-11-22T13:44:54.529Z,11.82
2022-11-22T13:46:44.706Z,11.81
2022-11-22T13:48:36.897Z,11.81
2022-11-22T13:50:45.189Z,11.82
2022-11-22T13:52:17.107Z,11.81
2022-11-22T13:53:50.065Z,11.79
2022-11-22T13:57:00.421Z,11.74
2022-11-22T13:58:50.257Z,11.75
2022-11-22T14:00:22.998Z,11.73
2022-11-22T14:01:56.011Z,11.73
2022-11-22T14:03:35.121Z,11.72
2022-11-22T14:05:22.507Z,11.71
2022-11-22T14:07:05.689Z,11.71
2022-11-22T14:08:38.144Z,11.70
2022-11-22T14:10:28.823Z,11.68
2022-11-22T14:12:13.016Z,11.66
2022-11-22T14:13:52.688Z,11.64
2022-11-22T14:15:43.212Z,11.61
2022-11-22T14:17:15.289Z,11.61
2022-11-22T14:18:47.493Z,11.59
2022-11-22T14:20:34.682Z,11.59
2022-11-22T14:22:26.855Z,11.59
2022-11-22T14:24:10.963Z,11.58
2022-11-22T14:25:51.707Z,11.57
2022-11-22T14:27:38.961Z,11.55
2022-11-22T14:29:40.495Z,11.52
2022-11-22T14:31:13.392Z,11.51
2022-11-22T14:32:49.629Z,11.51
2022-11-22T14:34:23.293Z,11.47
2022-11-22T14:36:07.367Z,11.46
2022-11-22T14:37:46.848Z,11.44
2022-11-22T14:39:53.978Z,11.39
2022-11-22T14:41:28.741Z,11.30
2022-11-22T14:43:19.309Z,11.27
2022-11-22T14:44:51.626Z,11.24
2022-11-22T14:46:51.577Z,11.22
2022-11-22T14:48:20.203Z,11.14
2022-11-22T14:49:52.398Z,11.07
2022-11-22T14:51:32.706Z,11.04
2022-11-22T14:53:11.833Z,11.01
2022-11-22T14:54:44.973Z,10.98
2022-11-22T14:56:18.105Z,10.94
2022-11-22T14:57:52.991Z,10.89
2022-11-22T14:59:28.242Z,10.86
2022-11-22T15:01:15.503Z,10.82
2022-11-22T15:03:01.296Z,10.79
2022-11-22T15:09:16.474Z,10.76
2022-11-22T15:09:20.088Z,10.66
2022-11-22T15:09:20.509Z,10.62
2022-11-22T15:11:06.726Z,10.56
2022-11-22T15:12:41.555Z,10.51
2022-11-22T15:14:42.471Z,10.48
2022-11-22T15:57:37.756Z,10.01
2022-11-22T15:59:30.000Z,9.97
2022-11-22T16:01:18.308Z,9.93
2022-11-22T16:02:56.115Z,9.88
2022-11-22T16:04:28.753Z,9.84
2022-11-22T16:06:11.011Z,9.82
2022-11-22T16:07:47.856Z,9.77
2022-11-22T16:09:22.730Z,9.75
2022-11-22T16:10:54.735Z,9.73
2022-11-22T16:12:30.794Z,9.73
2022-11-22T16:14:03.120Z,9.72
2022-11-22T16:15:38.265Z,9.73
2022-11-22T16:17:29.736Z,9.73
2022-11-22T16:19:24.995Z,9.72
2022-11-22T16:21:03.339Z,9.70
2022-11-22T16:22:35.393Z,9.70
2022-11-22T16:24:18.198Z,9.70
2022-11-22T16:25:50.938Z,9.68
2022-11-22T16:27:23.032Z,9.67
2022-11-22T16:28:56.030Z,9.66
2022-11-22T16:30:28.298Z,9.64
2022-11-22T16:32:12.001Z,9.61
2022-11-22T16:33:45.050Z,9.58
2022-11-22T16:35:29.229Z,9.55
2022-11-22T16:37:02.513Z,9.53
2022-11-22T16:38:34.682Z,9.49
2022-11-22T16:40:06.855Z,9.47
2022-11-22T16:41:38.859Z,9.42
2022-11-22T16:43:33.297Z,9.34
2022-11-22T16:45:06.136Z,9.27
2022-11-22T16:46:38.051Z,9.27
2022-11-22T16:48:33.007Z,9.27
2022-11-22T16:50:06.019Z,9.27
2022-11-22T16:51:38.236Z,9.25
2022-11-22T16:53:13.949Z,9.23
2022-11-22T16:54:46.045Z,9.15
2022-11-22T16:56:18.585Z,9.07
2022-11-22T16:57:50.585Z,9.04
2022-11-22T16:59:22.618Z,9.02
2022-11-22T17:00:55.447Z,8.99
2022-11-22T17:02:27.742Z,9.01
2022-11-22T17:04:02.050Z,9.00
2022-11-22T17:05:34.126Z,9.01
2022-11-22T17:07:12.334Z,8.99
2022-11-22T17:08:47.738Z,8.95
2022-11-22T17:10:19.812Z,8.91
2022-11-22T17:11:51.868Z,8.87
2022-11-22T17:13:26.016Z,8.83
2022-11-22T17:14:58.029Z,8.81
2022-11-22T17:16:30.147Z,8.83
2022-11-22T17:18:02.243Z,8.84
2022-11-22T17:21:37.036Z,8.89
2022-11-22T17:23:14.151Z,8.88
2022-11-22T17:24:48.537Z,8.88
2022-11-22T17:26:20.478Z,8.89
2022-11-22T17:27:54.588Z,8.89
2022-11-22T17:29:49.382Z,8.90
2022-11-22T17:31:19.542Z,8.89
2022-11-22T17:32:51.656Z,8.88
2022-11-22T17:34:23.690Z,8.88
2022-11-22T17:35:55.789Z,8.87
2022-11-22T17:37:29.990Z,8.88
2022-11-22T17:39:04.195Z,8.88
2022-11-22T17:40:36.532Z,8.88
2022-11-22T17:42:08.654Z,8.86
2022-11-22T17:43:40.807Z,8.83
2022-11-22T17:45:12.871Z,8.82
2022-11-22T17:46:44.976Z,8.81
2022-11-22T17:48:18.780Z,8.79
2022-11-22T17:49:50.974Z,8.76
2022-11-22T17:51:22.865Z,8.74
2022-11-22T17:52:54.882Z,8.74
2022-11-22T17:54:26.796Z,8.70
2022-11-22T17:56:14.463Z,8.70
2022-11-22T17:57:48.585Z,8.69
2022-11-22T17:59:23.821Z,8.67
2022-11-22T18:01:12.339Z,8.65
2022-11-22T18:02:44.488Z,8.58
2022-11-22T18:04:17.874Z,8.51
2022-11-22T18:05:49.913Z,8.47
2022-11-22T18:07:24.705Z,8.45
2022-11-22T18:08:56.713Z,8.44
2022-11-22T18:10:28.778Z,8.44
2022-11-22T18:12:00.870Z,8.40
2022-11-22T18:13:34.711Z,8.39
2022-11-22T18:15:07.270Z,8.35
2022-11-22T18:16:39.548Z,8.35
2022-11-22T18:18:27.253Z,8.35
2022-11-22T18:20:04.793Z,8.34
2022-11-22T18:21:38.549Z,8.35
2022-11-22T18:23:10.707Z,8.33
2022-11-22T18:24:43.087Z,8.31
2022-11-22T18:28:07.538Z,8.25
2022-11-22T18:29:42.872Z,8.20
2022-11-22T18:31:15.271Z,8.16
2022-11-22T18:32:47.325Z,8.11
2022-11-22T18:34:19.434Z,8.06
2022-11-22T18:36:04.932Z,8.05
2022-11-22T18:39:09.109Z,7.95
2022-11-22T18:40:47.387Z,7.94
2022-11-22T18:42:19.670Z,7.90
2022-11-22T18:43:51.532Z,7.90
2022-11-22T18:45:25.849Z,7.93
2022-11-22T18:46:58.667Z,7.91
2022-11-22T18:48:31.015Z,7.89
2022-11-22T18:50:03.125Z,7.85
2022-11-22T18:51:35.675Z,7.84
2022-11-22T18:53:08.070Z,7.84
2022-11-22T18:54:39.992Z,7.83
2022-11-22T18:56:12.793Z,7.79
2022-11-22T18:57:45.171Z,7.76
2022-11-22T18:59:17.352Z,7.77
2022-11-22T19:00:49.449Z,7.74
2022-11-22T19:02:26.233Z,7.68
2022-11-22T19:03:58.730Z,7.68
2022-11-22T19:05:30.918Z,7.69
2022-11-22T19:08:38.896Z,7.65
2022-11-22T19:10:11.104Z,7.64
2022-11-22T19:11:43.317Z,7.62
2022-11-22T19:13:15.371Z,7.59
2022-11-22T19:14:47.378Z,7.57
2022-11-22T19:16:21.580Z,7.56
2022-11-22T19:17:53.597Z,7.53
2022-11-22T19:19:25.758Z,7.50
2022-11-22T19:20:57.874Z,7.51
2022-11-22T19:22:31.170Z,7.52
2022-11-22T19:24:03.235Z,7.53
2022-11-22T19:25:37.642Z,7.54
2022-11-22T19:27:09.931Z,7.50
2022-11-22T19:28:42.322Z,7.49
2022-11-22T19:30:14.627Z,7.48
2022-11-22T19:31:47.184Z,7.43
2022-11-22T19:33:19.715Z,7.50
2022-11-22T19:34:52.026Z,7.52
2022-11-22T19:36:30.725Z,7.53
2022-11-22T19:38:04.301Z,7.48
2022-11-22T19:39:36.140Z,7.47
2022-11-22T19:41:09.182Z,7.46
2022-11-22T19:42:41.259Z,7.43
2022-11-22T19:44:13.157Z,7.41
2022-11-22T19:45:45.411Z,7.40
2022-11-22T19:47:18.450Z,7.40
2022-11-22T19:48:51.515Z,7.38
2022-11-22T19:50:23.648Z,7.34
2022-11-22T19:51:55.857Z,7.30
2022-11-22T19:53:27.723Z,7.26
2022-11-22T19:54:59.690Z,7.24
2022-11-22T19:56:32.729Z,7.21
2022-11-22T19:58:04.938Z,7.18
2022-11-22T19:59:37.573Z,7.18
2022-11-22T20:01:10.848Z,7.20
2022-11-22T20:02:42.986Z,7.21
2022-11-22T20:04:14.928Z,7.17
2022-11-22T20:05:46.921Z,7.16
2022-11-22T20:07:19.180Z,7.17
2022-11-22T20:08:51.148Z,7.18
2022-11-22T20:10:23.003Z,7.20
2022-11-22T20:11:54.997Z,7.21
2022-11-22T20:13:26.921Z,7.21
2022-11-22T20:14:59.503Z,7.22
2022-11-22T20:16:32.040Z,7.24
2022-11-22T20:18:04.052Z,7.23
2022-11-22T20:19:38.267Z,7.24
2022-11-22T20:21:10.969Z,7.24
2022-11-22T20:24:22.404Z,7.30
2022-11-22T20:25:54.285Z,7.31
2022-11-22T20:27:26.434Z,7.30
2022-11-22T20:28:59.557Z,7.30
2022-11-22T20:30:31.620Z,7.29
2022-11-22T20:32:03.627Z,7.30
2022-11-22T20:33:35.870Z,7.30
2022-11-22T20:35:08.180Z,7.30
2022-11-22T20:36:40.110Z,7.31
2022-11-22T20:38:13.791Z,7.33
2022-11-22T20:39:45.724Z,7.31
2022-11-22T20:41:18.524Z,7.31
2022-11-22T20:42:50.484Z,7.34
2022-11-22T20:44:25.725Z,7.34
2022-11-22T20:46:01.804Z,7.37
2022-11-22T20:47:33.736Z,7.37
2022-11-22T20:49:05.749Z,7.39
2022-11-22T20:50:37.762Z,7.42
2022-11-22T20:53:43.119Z,7.45
2022-11-22T20:55:15.118Z,7.46
2022-11-22T20:56:47.683Z,7.44
2022-11-22T20:58:19.808Z,7.43
2022-11-22T20:59:52.650Z,7.44
2022-11-22T21:01:25.734Z,7.44
2022-11-22T21:02:57.672Z,7.44
2022-11-22T21:04:30.131Z,7.44
2022-11-22T21:06:02.582Z,7.45
2022-11-22T21:07:35.321Z,7.43
2022-11-22T21:09:07.427Z,7.43
2022-11-22T21:10:39.349Z,7.43
2022-11-22T21:12:11.455Z,7.45
2022-11-22T21:13:43.515Z,7.45
2022-11-22T21:15:19.293Z,7.46
2022-11-22T21:16:51.171Z,7.46
2022-11-22T21:18:25.583Z,7.48
2022-11-22T21:19:57.773Z,7.45
2022-11-22T21:21:30.181Z,7.43
2022-11-22T21:23:02.214Z,7.41
2022-11-22T21:24:34.103Z,7.40
2022-11-22T21:26:06.662Z,7.40
2022-11-22T21:27:38.566Z,7.40
2022-11-22T21:29:16.478Z,7.37
2022-11-22T21:30:52.627Z,7.34
2022-11-22T21:32:24.759Z,7.34
2022-11-22T21:33:56.756Z,7.35
2022-11-22T21:35:28.606Z,7.36
2022-11-22T21:38:33.568Z,7.37
2022-11-22T21:40:07.298Z,7.38
2022-11-22T21:41:40.619Z,7.40
2022-11-22T21:43:13.005Z,7.39
2022-11-22T21:44:44.919Z,7.36
2022-11-22T21:46:18.632Z,7.35
2022-11-22T21:47:51.026Z,7.34
2022-11-22T21:49:22.896Z,7.35
2022-11-22T21:50:55.855Z,7.34
2022-11-22T21:52:27.770Z,7.36
2022-11-22T21:54:00.319Z,7.34
2022-11-22T21:55:32.313Z,7.33
2022-11-22T21:57:06.649Z,7.30
2022-11-22T21:58:38.471Z,7.28
2022-11-22T22:00:10.726Z,7.23
2022-11-22T22:01:42.733Z,7.22
2022-11-22T22:03:14.673Z,7.18
2022-11-22T22:04:46.612Z,7.15
2022-11-22T22:06:18.843Z,7.13
2022-11-22T22:07:52.996Z,7.08
2022-11-22T22:09:25.190Z,7.05
2022-11-22T22:10:59.918Z,7.05
2022-11-22T22:12:31.906Z,7.01
2022-11-22T22:14:03.757Z,7.00
2022-11-22T22:15:35.594Z,7.02
2022-11-22T22:17:07.395Z,7.02
2022-11-22T22:18:39.296Z,7.01
2022-11-22T22:20:11.359Z,7.00
2022-11-22T22:21:43.313Z,6.99
2022-11-22T22:23:15.942Z,6.98
2022-11-22T22:24:47.850Z,6.94
2022-11-22T22:26:20.140Z,6.92
2022-11-22T22:27:51.971Z,6.92
2022-11-22T22:29:23.865Z,6.88
2022-11-22T22:31:02.670Z,6.85
2022-11-22T22:32:34.967Z,6.81
2022-11-22T22:34:06.912Z,6.77
2022-11-22T22:35:38.773Z,6.73
2022-11-22T22:37:10.707Z,6.68
2022-11-22T22:38:42.565Z,6.64
2022-11-22T22:40:14.681Z,6.63
2022-11-22T22:41:46.506Z,6.62
2022-11-22T22:43:18.386Z,6.62
2022-11-22T22:44:50.280Z,6.61
2022-11-22T22:46:25.033Z,6.63